sensor_id;sensor_type;location;lat;lon;timestamp;pressure;altitude;pressure_sealevel;temperature;humidity
26697;BME280;14312;52.614;13.496;2022-07-12T00:00:39;101505.38;;;22.71;38.98
26697;BME280;14312;52.614;13.496;2022-07-12T00:03:22;101513.31;;;22.67;39.29
26697;BME280;14312;52.614;13.496;2022-07-12T00:06:07;101509.59;;;22.63;39.42
26697;BME280;14312;52.614;13.496;2022-07-12T00:08:51;101517.50;;;22.60;39.49
26697;BME280;14312;52.614;13.496;2022-07-12T00:11:36;101513.78;;;22.56;39.54
26697;BME280;14312;52.614;13.496;2022-07-12T00:14:21;101505.75;;;22.51;39.57
26697;BME280;14312;52.614;13.496;2022-07-12T00:17:05;101515.56;;;22.47;39.59
26697;BME280;14312;52.614;13.496;2022-07-12T00:19:49;101516.19;;;22.44;39.77
26697;BME280;14312;52.614;13.496;2022-07-12T00:22:34;101518.97;;;22.39;39.74
26697;BME280;14312;52.614;13.496;2022-07-12T00:25:19;101516.88;;;22.36;39.84
26697;BME280;14312;52.614;13.496;2022-07-12T00:28:03;101518.53;;;22.32;39.91
26697;BME280;14312;52.614;13.496;2022-07-12T00:30:47;101519.16;;;22.29;39.89
26697;BME280;14312;52.614;13.496;2022-07-12T00:33:31;101521.97;;;22.23;40.03
26697;BME280;14312;52.614;13.496;2022-07-12T00:36:15;101534.22;;;22.21;39.82
26697;BME280;14312;52.614;13.496;2022-07-12T00:38:59;101533.16;;;22.17;39.74
26697;BME280;14312;52.614;13.496;2022-07-12T00:41:47;101530.78;;;22.15;39.91
26697;BME280;14312;52.614;13.496;2022-07-12T00:44:32;101528.09;;;22.10;39.90
26697;BME280;14312;52.614;13.496;2022-07-12T00:47:39;101537.66;;;22.08;40.00
26697;BME280;14312;52.614;13.496;2022-07-12T00:50:28;101533.72;;;22.00;40.12
26697;BME280;14312;52.614;13.496;2022-07-12T00:53:13;101527.25;;;21.96;40.13
26697;BME280;14312;52.614;13.496;2022-07-12T00:55:57;101525.38;;;21.92;39.98
26697;BME280;14312;52.614;13.496;2022-07-12T00:58:43;101523.56;;;21.87;40.09
26697;BME280;14312;52.614;13.496;2022-07-12T01:01:28;101530.94;;;21.81;40.00
26697;BME280;14312;52.614;13.496;2022-07-12T01:04:13;101527.50;;;21.76;40.13
26697;BME280;14312;52.614;13.496;2022-07-12T01:06:42;101523.78;;;21.72;40.09
26697;BME280;14312;52.614;13.496;2022-07-12T01:09:28;101529.28;;;21.67;40.11
26697;BME280;14312;52.614;13.496;2022-07-12T01:12:14;101534.75;;;21.62;40.07
26697;BME280;14312;52.614;13.496;2022-07-12T01:15:00;101536.44;;;21.58;40.41
26697;BME280;14312;52.614;13.496;2022-07-12T01:17:47;101533.28;;;21.51;40.43
26697;BME280;14312;52.614;13.496;2022-07-12T01:20:33;101537.97;;;21.45;40.52
26697;BME280;14312;52.614;13.496;2022-07-12T01:23:21;101536.91;;;21.41;40.69
26697;BME280;14312;52.614;13.496;2022-07-12T01:26:08;101535.09;;;21.36;40.63
26697;BME280;14312;52.614;13.496;2022-07-12T01:28:55;101535.66;;;21.33;40.93
26697;BME280;14312;52.614;13.496;2022-07-12T01:31:41;101541.16;;;21.28;40.92
26697;BME280;14312;52.614;13.496;2022-07-12T01:34:28;101534.69;;;21.24;40.95
26697;BME280;14312;52.614;13.496;2022-07-12T01:37:14;101542.59;;;21.21;41.02
26697;BME280;14312;52.614;13.496;2022-07-12T01:40:01;101532.63;;;21.16;41.10
26697;BME280;14312;52.614;13.496;2022-07-12T01:42:48;101537.75;;;21.13;40.94
26697;BME280;14312;52.614;13.496;2022-07-12T01:45:34;101537.84;;;21.07;40.87
26697;BME280;14312;52.614;13.496;2022-07-12T01:48:19;101536.00;;;21.03;40.96
26697;BME280;14312;52.614;13.496;2022-07-12T01:51:05;101534.13;;;20.98;40.94
26697;BME280;14312;52.614;13.496;2022-07-12T01:53:51;101543.94;;;20.94;40.70
26697;BME280;14312;52.614;13.496;2022-07-12T01:56:37;101547.47;;;20.90;40.64
26697;BME280;14312;52.614;13.496;2022-07-12T01:59:23;101543.22;;;20.84;41.08
26697;BME280;14312;52.614;13.496;2022-07-12T02:02:09;101545.97;;;20.79;40.88
26697;BME280;14312;52.614;13.496;2022-07-12T02:04:55;101548.22;;;20.71;41.16
26697;BME280;14312;52.614;13.496;2022-07-12T02:07:40;101552.06;;;20.65;41.31
26697;BME280;14312;52.614;13.496;2022-07-12T02:10:27;101548.59;;;20.60;41.46
26697;BME280;14312;52.614;13.496;2022-07-12T02:13:13;101557.56;;;20.55;41.52
26697;BME280;14312;52.614;13.496;2022-07-12T02:15:59;101550.31;;;20.51;41.68
26697;BME280;14312;52.614;13.496;2022-07-12T02:18:45;101553.84;;;20.46;41.85
26697;BME280;14312;52.614;13.496;2022-07-12T02:21:30;101556.59;;;20.41;41.90
26697;BME280;14312;52.614;13.496;2022-07-12T02:24:16;101552.84;;;20.37;42.09
26697;BME280;14312;52.614;13.496;2022-07-12T02:27:02;101558.53;;;20.36;41.92
26697;BME280;14312;52.614;13.496;2022-07-12T02:29:48;101557.47;;;20.31;41.83
26697;BME280;14312;52.614;13.496;2022-07-12T02:32:34;101556.41;;;20.27;41.88
26697;BME280;14312;52.614;13.496;2022-07-12T02:35:21;101558.88;;;20.24;41.74
26697;BME280;14312;52.614;13.496;2022-07-12T02:38:07;101557.81;;;20.20;41.91
26697;BME280;14312;52.614;13.496;2022-07-12T02:40:52;101554.06;;;20.16;42.03
26697;BME280;14312;52.614;13.496;2022-07-12T02:43:38;101551.38;;;20.11;42.03
26697;BME280;14312;52.614;13.496;2022-07-12T02:46:24;101544.91;;;20.07;42.02
26697;BME280;14312;52.614;13.496;2022-07-12T02:49:11;101546.56;;;20.03;42.04
26697;BME280;14312;52.614;13.496;2022-07-12T02:51:57;101542.78;;;19.99;42.33
26697;BME280;14312;52.614;13.496;2022-07-12T02:54:43;101546.34;;;19.94;42.46
26697;BME280;14312;52.614;13.496;2022-07-12T02:57:29;101548.28;;;19.88;42.52
26697;BME280;14312;52.614;13.496;2022-07-12T03:00:14;101553.44;;;19.85;42.40
26697;BME280;14312;52.614;13.496;2022-07-12T03:03:01;101559.69;;;19.80;42.78
26697;BME280;14312;52.614;13.496;2022-07-12T03:05:47;101559.69;;;19.75;42.93
26697;BME280;14312;52.614;13.496;2022-07-12T03:08:33;101570.28;;;19.72;42.87
26697;BME280;14312;52.614;13.496;2022-07-12T03:11:19;101568.41;;;19.67;42.97
26697;BME280;14312;52.614;13.496;2022-07-12T03:14:05;101571.66;;;19.64;42.94
26697;BME280;14312;52.614;13.496;2022-07-12T03:16:51;101574.13;;;19.61;43.05
26697;BME280;14312;52.614;13.496;2022-07-12T03:19:36;101574.94;;;19.56;43.25
26697;BME280;14312;52.614;13.496;2022-07-12T03:22:22;101583.88;;;19.51;43.18
26697;BME280;14312;52.614;13.496;2022-07-12T03:25:09;101587.66;;;19.45;43.44
26697;BME280;14312;52.614;13.496;2022-07-12T03:27:54;101587.94;;;19.39;43.94
26697;BME280;14312;52.614;13.496;2022-07-12T03:30:40;101588.25;;;19.32;43.87
26697;BME280;14312;52.614;13.496;2022-07-12T03:33:26;101585.81;;;19.26;43.90
26697;BME280;14312;52.614;13.496;2022-07-12T03:36:12;101586.91;;;19.20;44.23
26697;BME280;14312;52.614;13.496;2022-07-12T03:38:59;101590.69;;;19.13;44.21
26697;BME280;14312;52.614;13.496;2022-07-12T03:41:45;101596.13;;;19.08;44.31
26697;BME280;14312;52.614;13.496;2022-07-12T03:44:31;101589.63;;;19.04;44.46
26697;BME280;14312;52.614;13.496;2022-07-12T03:47:16;101603.69;;;19.01;44.52
26697;BME280;14312;52.614;13.496;2022-07-12T03:50:04;101596.69;;;19.00;44.53
26697;BME280;14312;52.614;13.496;2022-07-12T03:52:50;101605.84;;;18.99;44.86
26697;BME280;14312;52.614;13.496;2022-07-12T03:55:36;101612.88;;;19.00;44.72
26697;BME280;14312;52.614;13.496;2022-07-12T03:58:22;101608.28;;;19.01;45.16
26697;BME280;14312;52.614;13.496;2022-07-12T04:01:08;101612.88;;;19.00;45.27
26697;BME280;14312;52.614;13.496;2022-07-12T04:03:55;101610.72;;;19.02;45.26
26697;BME280;14312;52.614;13.496;2022-07-12T04:06:41;101615.59;;;19.00;45.30
26697;BME280;14312;52.614;13.496;2022-07-12T04:09:27;101612.06;;;19.00;45.18
26697;BME280;14312;52.614;13.496;2022-07-12T04:12:13;101605.03;;;18.99;45.33
26697;BME280;14312;52.614;13.496;2022-07-12T04:14:59;101608.56;;;18.99;45.45
26697;BME280;14312;52.614;13.496;2022-07-12T04:17:44;101602.06;;;19.00;45.38
26697;BME280;14312;52.614;13.496;2022-07-12T04:20:30;101612.88;;;19.00;45.41
26697;BME280;14312;52.614;13.496;2022-07-12T04:23:16;101606.94;;;19.03;45.41
26697;BME280;14312;52.614;13.496;2022-07-12T04:26:02;101611.25;;;19.04;45.56
26697;BME280;14312;52.614;13.496;2022-07-12T04:28:48;101611.78;;;19.06;46.13
26697;BME280;14312;52.614;13.496;2022-07-12T04:31:34;101608.56;;;19.09;45.65
26697;BME280;14312;52.614;13.496;2022-07-12T04:34:19;101605.28;;;19.12;45.55
26697;BME280;14312;52.614;13.496;2022-07-12T04:37:05;101610.97;;;19.16;45.80
26697;BME280;14312;52.614;13.496;2022-07-12T04:39:51;101606.63;;;19.20;45.45
26697;BME280;14312;52.614;13.496;2022-07-12T04:42:37;101606.09;;;19.23;45.88
26697;BME280;14312;52.614;13.496;2022-07-12T04:45:35;101617.97;;;19.27;45.81
26697;BME280;14312;52.614;13.496;2022-07-12T04:48:20;101610.66;;;19.33;45.67
26697;BME280;14312;52.614;13.496;2022-07-12T04:51:06;101612.56;;;19.37;45.80
26697;BME280;14312;52.614;13.496;2022-07-12T04:53:52;101605.22;;;19.43;45.78
26697;BME280;14312;52.614;13.496;2022-07-12T04:56:38;101610.38;;;19.49;45.88
26697;BME280;14312;52.614;13.496;2022-07-12T04:59:24;101610.09;;;19.56;45.97
26697;BME280;14312;52.614;13.496;2022-07-12T05:02:10;101605.19;;;19.63;46.06
26697;BME280;14312;52.614;13.496;2022-07-12T05:04:56;101608.69;;;19.69;45.90
26697;BME280;14312;52.614;13.496;2022-07-12T05:07:42;101611.06;;;19.75;45.65
26697;BME280;14312;52.614;13.496;2022-07-12T05:10:28;101613.22;;;19.83;45.86
26697;BME280;14312;52.614;13.496;2022-07-12T05:13:14;101610.19;;;19.90;45.68
26697;BME280;14312;52.614;13.496;2022-07-12T05:15:59;101611.81;;;19.96;45.81
26697;BME280;14312;52.614;13.496;2022-07-12T05:18:45;101616.63;;;20.04;45.65
26697;BME280;14312;52.614;13.496;2022-07-12T05:21:31;101614.72;;;20.10;45.48
26697;BME280;14312;52.614;13.496;2022-07-12T05:24:19;101614.41;;;20.16;45.43
26697;BME280;14312;52.614;13.496;2022-07-12T05:27:05;101617.31;;;20.25;45.68
26697;BME280;14312;52.614;13.496;2022-07-12T05:29:51;101621.63;;;20.31;45.37
26697;BME280;14312;52.614;13.496;2022-07-12T05:32:37;101627.56;;;20.38;45.42
26697;BME280;14312;52.614;13.496;2022-07-12T05:35:23;101624.56;;;20.45;45.24
26697;BME280;14312;52.614;13.496;2022-07-12T05:38:08;101626.66;;;20.53;45.17
26697;BME280;14312;52.614;13.496;2022-07-12T05:40:54;101630.63;;;20.60;45.02
26697;BME280;14312;52.614;13.496;2022-07-12T05:43:40;101640.38;;;20.66;45.22
26697;BME280;14312;52.614;13.496;2022-07-12T05:46:26;101631.66;;;20.75;45.28
26697;BME280;14312;52.614;13.496;2022-07-12T05:49:12;101642.44;;;20.80;44.95
26697;BME280;14312;52.614;13.496;2022-07-12T05:51:58;101642.63;;;20.88;45.16
26697;BME280;14312;52.614;13.496;2022-07-12T05:55:02;101640.69;;;20.94;45.04
26697;BME280;14312;52.614;13.496;2022-07-12T05:57:48;101642.78;;;21.02;44.70
26697;BME280;14312;52.614;13.496;2022-07-12T06:00:34;101643.25;;;21.09;45.12
26697;BME280;14312;52.614;13.496;2022-07-12T06:03:20;101642.13;;;21.15;44.82
26697;BME280;14312;52.614;13.496;2022-07-12T06:06:05;101648.03;;;21.22;45.03
26697;BME280;14312;52.614;13.496;2022-07-12T06:08:51;101646.34;;;21.31;45.09
26697;BME280;14312;52.614;13.496;2022-07-12T06:11:37;101642.16;;;21.39;44.97
26697;BME280;14312;52.614;13.496;2022-07-12T06:14:23;101643.44;;;21.46;44.85
26697;BME280;14312;52.614;13.496;2022-07-12T06:17:09;101643.91;;;21.54;44.95
26697;BME280;14312;52.614;13.496;2022-07-12T06:19:54;101651.41;;;21.62;45.09
26697;BME280;14312;52.614;13.496;2022-07-12T06:22:40;101652.97;;;21.68;44.84
26697;BME280;14312;52.614;13.496;2022-07-12T06:25:26;101649.13;;;21.74;45.01
26697;BME280;14312;52.614;13.496;2022-07-12T06:28:12;101649.56;;;21.81;44.81
26697;BME280;14312;52.614;13.496;2022-07-12T06:30:58;101650.81;;;21.88;44.53
26697;BME280;14312;52.614;13.496;2022-07-12T06:33:44;101656.47;;;21.92;44.56
26697;BME280;14312;52.614;13.496;2022-07-12T06:36:30;101646.91;;;22.00;44.87
26697;BME280;14312;52.614;13.496;2022-07-12T06:39:15;101652.19;;;22.10;44.64
26697;BME280;14312;52.614;13.496;2022-07-12T06:42:01;101653.44;;;22.17;44.48
26697;BME280;14312;52.614;13.496;2022-07-12T06:44:49;101641.13;;;22.25;44.12
26697;BME280;14312;52.614;13.496;2022-07-12T06:47:35;101639.09;;;22.36;44.09
26697;BME280;14312;52.614;13.496;2022-07-12T06:50:20;101637.31;;;22.45;43.88
26697;BME280;14312;52.614;13.496;2022-07-12T06:53:06;101633.91;;;22.53;43.61
26697;BME280;14312;52.614;13.496;2022-07-12T06:55:52;101632.16;;;22.62;43.67
26697;BME280;14312;52.614;13.496;2022-07-12T06:58:38;101634.19;;;22.70;43.49
26697;BME280;14312;52.614;13.496;2022-07-12T07:01:24;101634.06;;;22.80;43.41
26697;BME280;14312;52.614;13.496;2022-07-12T07:04:10;101637.72;;;22.89;43.26
26697;BME280;14312;52.614;13.496;2022-07-12T07:06:55;101633.50;;;22.97;42.80
26697;BME280;14312;52.614;13.496;2022-07-12T07:09:41;101636.34;;;23.06;42.84
26697;BME280;14312;52.614;13.496;2022-07-12T07:12:27;101638.56;;;23.17;42.74
26697;BME280;14312;52.614;13.496;2022-07-12T07:15:13;101636.59;;;23.23;42.75
26697;BME280;14312;52.614;13.496;2022-07-12T07:18:01;101638.59;;;23.31;42.69
26697;BME280;14312;52.614;13.496;2022-07-12T07:20:47;101635.19;;;23.39;42.31
26697;BME280;14312;52.614;13.496;2022-07-12T07:23:33;101627.16;;;23.48;42.50
26697;BME280;14312;52.614;13.496;2022-07-12T07:26:19;101624.53;;;23.56;42.21
26697;BME280;14312;52.614;13.496;2022-07-12T07:29:05;101624.31;;;23.66;42.14
26697;BME280;14312;52.614;13.496;2022-07-12T07:32:09;101616.25;;;23.75;42.12
26697;BME280;14312;52.614;13.496;2022-07-12T07:34:55;101620.41;;;23.86;41.94
26697;BME280;14312;52.614;13.496;2022-07-12T07:37:40;101612.50;;;23.98;42.01
26697;BME280;14312;52.614;13.496;2022-07-12T07:40:26;101622.84;;;24.10;41.50
26697;BME280;14312;52.614;13.496;2022-07-12T07:43:12;101622.66;;;24.20;41.24
26697;BME280;14312;52.614;13.496;2022-07-12T07:45:58;101623.03;;;24.27;41.05
26697;BME280;14312;52.614;13.496;2022-07-12T07:48:44;101625.22;;;24.39;40.77
26697;BME280;14312;52.614;13.496;2022-07-12T07:51:30;101617.13;;;24.47;41.03
26697;BME280;14312;52.614;13.496;2022-07-12T07:54:16;101610.72;;;24.52;40.32
26697;BME280;14312;52.614;13.496;2022-07-12T07:57:01;101619.47;;;24.63;40.65
26697;BME280;14312;52.614;13.496;2022-07-12T07:59:47;101618.59;;;24.76;40.34
26697;BME280;14312;52.614;13.496;2022-07-12T08:02:33;101619.94;;;24.87;40.09
26697;BME280;14312;52.614;13.496;2022-07-12T08:05:19;101619.72;;;24.97;39.73
26697;BME280;14312;52.614;13.496;2022-07-12T08:08:04;101616.25;;;25.05;39.66
26697;BME280;14312;52.614;13.496;2022-07-12T08:10:50;101612.09;;;25.16;39.09
26697;BME280;14312;52.614;13.496;2022-07-12T08:13:36;101615.53;;;25.22;39.34
26697;BME280;14312;52.614;13.496;2022-07-12T08:16:22;101612.81;;;25.30;39.10
26697;BME280;14312;52.614;13.496;2022-07-12T08:19:08;101620.22;;;25.39;39.17
26697;BME280;14312;52.614;13.496;2022-07-12T08:21:55;101624.63;;;25.48;38.70
26697;BME280;14312;52.614;13.496;2022-07-12T08:24:40;101614.03;;;25.55;38.42
26697;BME280;14312;52.614;13.496;2022-07-12T08:27:26;101613.59;;;25.62;38.34
26697;BME280;14312;52.614;13.496;2022-07-12T08:30:12;101614.75;;;25.69;38.49
26697;BME280;14312;52.614;13.496;2022-07-12T08:32:58;101616.69;;;25.78;37.89
26697;BME280;14312;52.614;13.496;2022-07-12T08:35:44;101613.81;;;25.83;37.87
26697;BME280;14312;52.614;13.496;2022-07-12T08:38:30;101602.41;;;25.89;37.73
26697;BME280;14312;52.614;13.496;2022-07-12T08:41:17;101611.44;;;25.98;37.73
26697;BME280;14312;52.614;13.496;2022-07-12T08:44:03;101606.28;;;26.05;38.02
26697;BME280;14312;52.614;13.496;2022-07-12T08:46:49;101601.16;;;26.12;38.07
26697;BME280;14312;52.614;13.496;2022-07-12T08:49:36;101605.47;;;26.22;38.31
26697;BME280;14312;52.614;13.496;2022-07-12T08:52:26;101604.41;;;26.32;38.10
26697;BME280;14312;52.614;13.496;2022-07-12T08:55:18;101606.16;;;26.36;37.30
26697;BME280;14312;52.614;13.496;2022-07-12T08:58:05;101600.84;;;26.40;37.96
26697;BME280;14312;52.614;13.496;2022-07-12T09:00:59;101601.66;;;26.49;37.89
26697;BME280;14312;52.614;13.496;2022-07-12T09:03:47;101597.63;;;26.55;37.81
26697;BME280;14312;52.614;13.496;2022-07-12T09:06:33;101603.41;;;26.62;38.10
26697;BME280;14312;52.614;13.496;2022-07-12T09:09:34;101606.28;;;26.74;37.29
26697;BME280;14312;52.614;13.496;2022-07-12T09:12:22;101602.41;;;26.75;37.39
26697;BME280;14312;52.614;13.496;2022-07-12T09:15:19;101600.47;;;26.84;37.14
26697;BME280;14312;52.614;13.496;2022-07-12T09:18:05;101599.34;;;26.85;37.47
26697;BME280;14312;52.614;13.496;2022-07-12T09:20:58;101596.94;;;26.93;37.43
26697;BME280;14312;52.614;13.496;2022-07-12T09:23:57;101584.81;;;27.02;37.35
26697;BME280;14312;52.614;13.496;2022-07-12T09:26:44;101592.84;;;27.07;37.83
26697;BME280;14312;52.614;13.496;2022-07-12T09:29:31;101587.53;;;27.11;37.48
26697;BME280;14312;52.614;13.496;2022-07-12T09:32:18;101584.59;;;27.16;37.36
26697;BME280;14312;52.614;13.496;2022-07-12T09:35:23;101591.19;;;27.15;36.78
26697;BME280;14312;52.614;13.496;2022-07-12T09:38:27;101584.59;;;27.16;36.84
26697;BME280;14312;52.614;13.496;2022-07-12T09:41:17;101585.69;;;27.23;36.40
26697;BME280;14312;52.614;13.496;2022-07-12T09:44:04;101587.31;;;27.24;36.43
26697;BME280;14312;52.614;13.496;2022-07-12T09:46:51;101579.56;;;27.26;36.29
26697;BME280;14312;52.614;13.496;2022-07-12T09:49:37;101590.53;;;27.26;35.69
26697;BME280;14312;52.614;13.496;2022-07-12T09:52:27;101593.41;;;27.30;35.15
26697;BME280;14312;52.614;13.496;2022-07-12T09:55:16;101586.44;;;27.41;35.89
26697;BME280;14312;52.614;13.496;2022-07-12T09:58:04;101590.25;;;27.49;35.90
26697;BME280;14312;52.614;13.496;2022-07-12T10:00:51;101588.63;;;27.56;35.83
26697;BME280;14312;52.614;13.496;2022-07-12T10:03:40;101593.59;;;27.63;35.69
26697;BME280;14312;52.614;13.496;2022-07-12T10:06:27;101596.94;;;27.69;36.00
26697;BME280;14312;52.614;13.496;2022-07-12T10:09:16;101590.59;;;27.77;35.38
26697;BME280;14312;52.614;13.496;2022-07-12T10:12:03;101597.00;;;27.81;34.89
26697;BME280;14312;52.614;13.496;2022-07-12T10:14:55;101590.66;;;27.89;34.29
26697;BME280;14312;52.614;13.496;2022-07-12T10:17:52;101589.81;;;27.97;34.64
26697;BME280;14312;52.614;13.496;2022-07-12T10:20:43;101592.66;;;28.00;34.50
26697;BME280;14312;52.614;13.496;2022-07-12T10:29:04;101581.06;;;28.24;34.26
26697;BME280;14312;52.614;13.496;2022-07-12T10:31:51;101586.16;;;28.34;34.36
26697;BME280;14312;52.614;13.496;2022-07-12T10:34:37;101580.78;;;28.38;34.21
26697;BME280;14312;52.614;13.496;2022-07-12T10:37:23;101578.75;;;28.47;34.28
26697;BME280;14312;52.614;13.496;2022-07-12T10:40:19;101587.72;;;28.56;32.50
26697;BME280;14312;52.614;13.496;2022-07-12T10:45:51;101582.59;;;28.67;33.69
26697;BME280;14312;52.614;13.496;2022-07-12T10:48:37;101582.84;;;28.74;33.70
26697;BME280;14312;52.614;13.496;2022-07-12T10:51:23;101574.41;;;28.79;33.92
26697;BME280;14312;52.614;13.496;2022-07-12T10:54:29;101575.59;;;28.90;32.74
26697;BME280;14312;52.614;13.496;2022-07-12T10:57:15;101568.50;;;28.89;33.82
26697;BME280;14312;52.614;13.496;2022-07-12T11:00:01;101578.09;;;28.95;33.65
26697;BME280;14312;52.614;13.496;2022-07-12T11:02:46;101587.00;;;28.92;33.21
26697;BME280;14312;52.614;13.496;2022-07-12T11:05:32;101583.81;;;29.02;32.96
26697;BME280;14312;52.614;13.496;2022-07-12T11:08:18;101579.25;;;29.06;32.83
26697;BME280;14312;52.614;13.496;2022-07-12T11:11:04;101577.91;;;29.12;32.68
26697;BME280;14312;52.614;13.496;2022-07-12T11:13:50;101585.91;;;29.17;32.85
26697;BME280;14312;52.614;13.496;2022-07-12T11:16:47;101585.44;;;29.28;33.02
26697;BME280;14312;52.614;13.496;2022-07-12T11:19:33;101578.38;;;29.27;33.20
26697;BME280;14312;52.614;13.496;2022-07-12T11:22:24;101580.19;;;29.35;32.19
26697;BME280;14312;52.614;13.496;2022-07-12T11:25:12;101582.94;;;29.35;32.46
26697;BME280;14312;52.614;13.496;2022-07-12T11:27:59;101578.84;;;29.41;32.70
26697;BME280;14312;52.614;13.496;2022-07-12T11:30:51;101575.16;;;29.49;32.24
26697;BME280;14312;52.614;13.496;2022-07-12T11:33:39;101577.69;;;29.54;32.29
26697;BME280;14312;52.614;13.496;2022-07-12T11:36:25;101572.41;;;29.61;32.13
26697;BME280;14312;52.614;13.496;2022-07-12T11:39:12;101564.59;;;29.63;32.48
26697;BME280;14312;52.614;13.496;2022-07-12T11:41:59;101556.56;;;29.70;32.66
26697;BME280;14312;52.614;13.496;2022-07-12T11:44:49;101557.97;;;29.76;32.23
26697;BME280;14312;52.614;13.496;2022-07-12T11:47:35;101558.16;;;29.83;31.96
26697;BME280;14312;52.614;13.496;2022-07-12T11:50:21;101565.38;;;29.88;31.87
26697;BME280;14312;52.614;13.496;2022-07-12T11:53:14;101566.41;;;29.95;31.65
26697;BME280;14312;52.614;13.496;2022-07-12T11:56:02;101559.50;;;30.02;32.07
26697;BME280;14312;52.614;13.496;2022-07-12T11:58:55;101558.31;;;30.15;31.50
26697;BME280;14312;52.614;13.496;2022-07-12T12:01:42;101552.56;;;30.20;32.07
26697;BME280;14312;52.614;13.496;2022-07-12T12:04:27;101559.50;;;30.29;30.97
26697;BME280;14312;52.614;13.496;2022-07-12T12:07:14;101549.97;;;30.39;31.71
26697;BME280;14312;52.614;13.496;2022-07-12T12:10:15;101555.41;;;30.51;30.66
26697;BME280;14312;52.614;13.496;2022-07-12T12:13:02;101548.50;;;30.57;31.21
26697;BME280;14312;52.614;13.496;2022-07-12T12:15:52;101542.38;;;30.64;30.97
26697;BME280;14312;52.614;13.496;2022-07-12T12:18:39;101535.91;;;30.72;30.90
26697;BME280;14312;52.614;13.496;2022-07-12T12:21:25;101543.47;;;30.75;30.67
26697;BME280;14312;52.614;13.496;2022-07-12T12:24:12;101560.06;;;30.79;30.34
26697;BME280;14312;52.614;13.496;2022-07-12T12:26:58;101543.28;;;30.84;30.09
26697;BME280;14312;52.614;13.496;2022-07-12T12:29:43;101544.19;;;30.88;29.96
26697;BME280;14312;52.614;13.496;2022-07-12T12:32:29;101542.28;;;30.92;29.36
26697;BME280;14312;52.614;13.496;2022-07-12T12:35:17;101545.59;;;30.97;30.16
26697;BME280;14312;52.614;13.496;2022-07-12T12:38:14;101547.00;;;30.91;28.32
26697;BME280;14312;52.614;13.496;2022-07-12T12:41:00;101535.63;;;30.93;28.79
26697;BME280;14312;52.614;13.496;2022-07-12T12:43:46;101541.41;;;30.88;29.31
26697;BME280;14312;52.614;13.496;2022-07-12T12:46:46;101533.06;;;31.00;29.50
26697;BME280;14312;52.614;13.496;2022-07-12T12:49:50;101534.22;;;30.99;28.69
26697;BME280;14312;52.614;13.496;2022-07-12T12:52:47;101530.66;;;30.98;28.58
26697;BME280;14312;52.614;13.496;2022-07-12T12:55:33;101533.06;;;31.00;29.17
26697;BME280;14312;52.614;13.496;2022-07-12T12:58:20;101519.13;;;31.08;29.29
26697;BME280;14312;52.614;13.496;2022-07-12T13:01:07;101529.53;;;31.15;29.25
26697;BME280;14312;52.614;13.496;2022-07-12T13:03:53;101518.66;;;31.22;29.05
26697;BME280;14312;52.614;13.496;2022-07-12T13:06:39;101518.31;;;31.24;28.74
26697;BME280;14312;52.614;13.496;2022-07-12T13:09:27;101523.19;;;31.30;28.68
26697;BME280;14312;52.614;13.496;2022-07-12T13:12:14;101522.03;;;31.31;28.54
26697;BME280;14312;52.614;13.496;2022-07-12T13:15:00;101517.31;;;31.32;28.32
26697;BME280;14312;52.614;13.496;2022-07-12T13:17:46;101525.25;;;31.33;28.76
26697;BME280;14312;52.614;13.496;2022-07-12T13:20:33;101521.31;;;31.34;28.46
26697;BME280;14312;52.614;13.496;2022-07-12T13:23:19;101510.66;;;31.33;27.98
26697;BME280;14312;52.614;13.496;2022-07-12T13:26:05;101518.53;;;31.34;28.61
26697;BME280;14312;52.614;13.496;2022-07-12T13:28:51;101519.78;;;31.37;28.91
26697;BME280;14312;52.614;13.496;2022-07-12T13:31:37;101527.72;;;31.38;28.42
26697;BME280;14312;52.614;13.496;2022-07-12T13:34:23;101526.97;;;31.41;28.16
26697;BME280;14312;52.614;13.496;2022-07-12T13:37:09;101522.00;;;31.47;27.92
26697;BME280;14312;52.614;13.496;2022-07-12T13:39:55;101528.88;;;31.57;27.96
26697;BME280;14312;52.614;13.496;2022-07-12T13:42:56;101512.13;;;31.62;27.92
26697;BME280;14312;52.614;13.496;2022-07-12T13:45:42;101503.25;;;31.72;28.03
26697;BME280;14312;52.614;13.496;2022-07-12T13:48:30;101504.91;;;31.76;28.20
26697;BME280;14312;52.614;13.496;2022-07-12T13:51:16;101507.56;;;31.88;27.43
26697;BME280;14312;52.614;13.496;2022-07-12T13:54:02;101501.81;;;31.97;27.35
26697;BME280;14312;52.614;13.496;2022-07-12T13:56:48;101505.44;;;32.01;27.89
26697;BME280;14312;52.614;13.496;2022-07-12T13:59:34;101510.22;;;32.04;27.83
26697;BME280;14312;52.614;13.496;2022-07-12T14:02:20;101498.91;;;32.09;27.77
26697;BME280;14312;52.614;13.496;2022-07-12T14:05:06;101501.38;;;32.14;27.83
26697;BME280;14312;52.614;13.496;2022-07-12T14:07:53;101499.13;;;32.20;28.08
26697;BME280;14312;52.614;13.496;2022-07-12T14:10:39;101492.22;;;32.30;27.73
26697;BME280;14312;52.614;13.496;2022-07-12T14:13:25;101493.44;;;32.32;27.53
26697;BME280;14312;52.614;13.496;2022-07-12T14:16:11;101500.63;;;32.37;26.60
26697;BME280;14312;52.614;13.496;2022-07-12T14:18:58;101494.38;;;32.40;26.63
26697;BME280;14312;52.614;13.496;2022-07-12T14:21:44;101501.47;;;32.41;26.88
26697;BME280;14312;52.614;13.496;2022-07-12T14:24:30;101493.06;;;32.34;26.52
26697;BME280;14312;52.614;13.496;2022-07-12T14:27:15;101494.59;;;32.31;26.41
26697;BME280;14312;52.614;13.496;2022-07-12T14:30:02;101487.84;;;32.28;26.88